English version
lugares datos climáticos artículos

datos de Mairena del Aljarafe, Sevilla, España
Año Mes Dia Mostrar

  Fecha       hora        Temp.ext.    Hum.ext.  Dir.Viento   Vel.Viento  Presion al NM   T.int. Prec.hoy 

   28-10-2020    16:10      22.3º(+1.5)     55%      045(NE)      1.6 km/h    1021.6 hpa     23.7º    0.0 mm
   28-10-2020    16:05      22.1º(+1.6)     55%      045(NE)      1.6 km/h    1021.7 hpa     23.7º    0.0 mm
   28-10-2020    16:00      21.8º(+1.3)     56%      045(NE)      1.6 km/h    1021.7 hpa     23.7º    0.0 mm
   28-10-2020    15:55      21.6º(+1.0)     56%      090 (E)      3.2 km/h    1021.8 hpa     23.7º    0.0 mm
   28-10-2020    15:50      21.4º(+0.8)     57%      090 (E)      3.2 km/h    1021.7 hpa     23.7º    0.0 mm
   28-10-2020    15:45      21.6º(+1.3)     56%      090 (E)      8.0 km/h    1021.8 hpa     23.7º    0.0 mm
   28-10-2020    15:40      21.7º(+1.5)     56%      045(NE)      3.2 km/h    1021.7 hpa     23.7º    0.0 mm
   28-10-2020    15:35      21.4º(+1.4)     56%      045(NE)      3.2 km/h    1021.7 hpa     23.7º    0.0 mm
   28-10-2020    15:30      21.3º(+1.4)     57%      112 (E)      6.4 km/h    1021.7 hpa     23.7º    0.0 mm
   28-10-2020    15:25      21.2º(+1.3)     56%      067(NE)      8.0 km/h    1021.8 hpa     23.7º    0.0 mm
   28-10-2020    15:20      21.4º(+1.2)     56%      045(NE)      3.2 km/h    1021.8 hpa     23.6º    0.0 mm
   28-10-2020    15:15      21.1º(+0.9)     57%      067(NE)      3.2 km/h    1021.8 hpa     23.6º    0.0 mm
   28-10-2020    15:10      20.8º(+0.6)     59%      112 (E)      6.4 km/h    1021.8 hpa     23.5º    0.0 mm
   28-10-2020    15:05      20.6º(+0.7)     58%      090 (E)      9.7 km/h    1021.9 hpa     23.4º    0.0 mm
   28-10-2020    15:00      20.7º(+1.0)     58%      090 (E)      4.8 km/h    1022.0 hpa     23.4º    0.0 mm
   28-10-2020    14:55      20.6º(+1.0)     58%      090 (E)      6.4 km/h    1022.0 hpa     23.3º    0.0 mm
   28-10-2020    14:50      21.0º(+1.6)     57%      022 (N)      3.2 km/h    1022.0 hpa     23.2º    0.0 mm
   28-10-2020    14:45      20.8º(+1.2)     58%      022 (N)      4.8 km/h    1022.0 hpa     23.2º    0.0 mm
   28-10-2020    14:40      20.8º(+1.3)     57%      045(NE)      8.0 km/h    1022.0 hpa     23.1º    0.0 mm
   28-10-2020    14:35      20.7º(+1.2)     58%      022 (N)      3.2 km/h    1022.0 hpa     23.1º    0.0 mm
   28-10-2020    14:30      20.4º(+0.6)     59%      067(NE)      3.2 km/h    1022.0 hpa     23.1º    0.0 mm
   28-10-2020    14:25      20.2º(+0.3)     59%      090 (E)      8.0 km/h    1022.0 hpa     23.1º    0.0 mm
   28-10-2020    14:20      20.1º(+0.4)     59%      045(NE)      4.8 km/h    1022.1 hpa     23.1º    0.0 mm
   28-10-2020    14:15      19.7º(+0.3)     61%      090 (E)      8.0 km/h    1022.2 hpa     23.1º    0.0 mm
   28-10-2020    14:10      19.8º(+0.6)     60%      090 (E)      6.4 km/h    1022.3 hpa     23.1º    0.0 mm
   28-10-2020    14:05      19.6º(+0.6)     60%      090 (E)      4.8 km/h    1022.4 hpa     23.1º    0.0 mm
   28-10-2020    14:00      19.4º(+0.8)     61%      112 (E)      6.4 km/h    1022.5 hpa     23.1º    0.0 mm
   28-10-2020    13:55      19.3º(+1.1)     61%      090 (E)      6.4 km/h    1022.7 hpa     23.1º    0.0 mm
   28-10-2020    13:50      19.1º(+1.0)     63%      090 (E)      8.0 km/h    1022.7 hpa     23.2º    0.0 mm
   28-10-2020    13:45      19.2º(+1.1)     62%      090 (E)      8.0 km/h    1022.7 hpa     23.2º    0.0 mm
   28-10-2020    13:40      19.2º(+0.8)     63%      112 (E)      3.2 km/h    1022.9 hpa     23.2º    0.0 mm
   28-10-2020    13:35      19.0º(+0.7)     63%      090 (E)      8.0 km/h    1022.9 hpa     23.2º    0.0 mm
   28-10-2020    13:30      19.0º(+1.1)     63%      090 (E)      4.8 km/h    1023.0 hpa     23.2º    0.0 mm
   28-10-2020    13:25      18.8º(+1.0)     64%      045(NE)      4.8 km/h    1023.0 hpa     23.2º    0.0 mm
   28-10-2020    13:20      18.8º(+1.1)     64%      045(NE)      4.8 km/h    1023.1 hpa     23.2º    0.0 mm
   28-10-2020    13:15      18.6º(+1.0)     64%      045(NE)      4.8 km/h    1023.1 hpa     23.2º    0.0 mm
   28-10-2020    13:10      18.3º(+0.7)     64%      112 (E)      9.7 km/h    1023.2 hpa     23.2º    0.0 mm
   28-10-2020    13:05      18.8º(+1.2)     63%      045(NE)      4.8 km/h    1023.2 hpa     23.2º    0.0 mm
   28-10-2020    13:00      18.7º(+1.1)     64%      067(NE)      3.2 km/h    1023.5 hpa     23.2º    0.0 mm
   28-10-2020    12:55      18.5º(+1.0)     64%      045(NE)      4.8 km/h    1023.5 hpa     23.2º    0.0 mm
   28-10-2020    12:50      18.6º(+1.1)     63%      067(NE)      4.8 km/h    1023.6 hpa     23.2º    0.0 mm
   28-10-2020    12:45      18.6º(+1.3)     64%      045(NE)      3.2 km/h    1023.5 hpa     23.2º    0.0 mm
   28-10-2020    12:40      18.4º(+1.2)     64%      067(NE)      3.2 km/h    1023.6 hpa     23.2º    0.0 mm
   28-10-2020    12:35      18.2º(+1.5)     64%      045(NE)      4.8 km/h    1023.6 hpa     23.2º    0.0 mm
   28-10-2020    12:30      18.1º(+1.8)     66%      067(NE)      4.8 km/h    1023.6 hpa     23.2º    0.0 mm
   28-10-2020    12:25      17.7º(+1.6)     67%      022 (N)      4.8 km/h    1023.6 hpa     23.2º    0.0 mm
   28-10-2020    12:20      17.4º(+1.6)     67%      022 (N)      6.4 km/h    1023.6 hpa     23.2º    0.0 mm
   28-10-2020    12:15      17.3º(+1.5)     68%      045(NE)      4.8 km/h    1023.6 hpa     23.2º    0.0 mm
   28-10-2020    12:10      17.2º(+1.1)     68%      045(NE)      6.4 km/h    1023.7 hpa     23.2º    0.0 mm
   28-10-2020    12:05      17.1º(+1.3)     68%      090 (E)      6.4 km/h    1023.7 hpa     23.2º    0.0 mm
   28-10-2020    12:00      17.2º(+1.5)     67%      067(NE)      3.2 km/h    1023.8 hpa     23.2º    0.0 mm
   28-10-2020    11:55      17.1º(+1.5)     68%      112 (E)      3.2 km/h    1023.8 hpa     23.2º    0.0 mm
   28-10-2020    11:50      16.9º(+1.4)     68%      045(NE)      3.2 km/h    1023.8 hpa     23.2º    0.0 mm
   28-10-2020    11:45      16.8º(+1.6)     69%      022 (N)      1.6 km/h    1023.8 hpa     23.2º    0.0 mm
   28-10-2020    11:40      16.6º(+1.8)     70%      112 (E)      1.6 km/h    1023.7 hpa     23.2º    0.0 mm
   28-10-2020    11:35      16.4º(+1.7)     70%      112 (E)      4.8 km/h    1023.8 hpa     23.2º    0.0 mm
   28-10-2020    11:30      16.3º(+1.7)     69%      067(NE)      4.8 km/h    1023.8 hpa     23.3º    0.0 mm
   28-10-2020    11:25      16.3º(+1.8)     70%      045(NE)      3.2 km/h    1023.8 hpa     23.3º    0.0 mm
   28-10-2020    11:20      16.1º(+1.4)     71%      045(NE)      3.2 km/h    1023.7 hpa     23.3º    0.0 mm
   28-10-2020    11:15      15.9º(+1.2)     71%      090 (E)      3.2 km/h    1023.6 hpa     23.3º    0.0 mm
   28-10-2020    11:10      15.8º(+1.2)     71%      045(NE)      3.2 km/h    1023.6 hpa     23.3º    0.0 mm
   28-10-2020    11:05      15.8º(+1.5)     70%      045(NE)      4.8 km/h    1023.6 hpa     23.3º    0.0 mm
   28-10-2020    11:00      15.8º(+1.7)     71%      067(NE)      3.2 km/h    1023.5 hpa     23.3º    0.0 mm
   28-10-2020    10:55      15.6º(+1.6)     72%      045(NE)      3.2 km/h    1023.5 hpa     23.3º    0.0 mm
   28-10-2020    10:50      15.5º(+1.3)     72%      090 (E)      4.8 km/h    1023.5 hpa     23.3º    0.0 mm
   28-10-2020    10:45      15.3º(+1.0)     73%      045(NE)      3.2 km/h    1023.4 hpa     23.3º    0.0 mm
   28-10-2020    10:40      15.1º(+0.8)     73%      045(NE)      3.2 km/h    1023.5 hpa     23.3º    0.0 mm
   28-10-2020    10:35      14.9º(+0.7)     73%      067(NE)      4.8 km/h    1023.5 hpa     23.3º    0.0 mm
   28-10-2020    10:30      14.8º(+0.9)     74%      045(NE)      3.2 km/h    1023.4 hpa     23.3º    0.0 mm
   28-10-2020    10:25      14.5º(+0.8)     74%      067(NE)      3.2 km/h    1023.4 hpa     23.3º    0.0 mm
   28-10-2020    10:20      14.3º(+0.9)     74%      045(NE)      3.2 km/h    1023.5 hpa     23.3º    0.0 mm
   28-10-2020    10:15      14.2º(+1.3)     75%      045(NE)      4.8 km/h    1023.5 hpa     23.3º    0.0 mm
   28-10-2020    10:10      14.1º(+1.4)     75%      045(NE)      4.8 km/h    1023.5 hpa     23.4º    0.0 mm
   28-10-2020    10:05      13.9º(+1.5)     75%      045(NE)      4.8 km/h    1023.5 hpa     23.4º    0.0 mm
   28-10-2020    10:00      13.9º(+1.6)     74%      045(NE)      6.4 km/h    1023.4 hpa     23.4º    0.0 mm
   28-10-2020    09:55      13.9º(+1.6)     74%      067(NE)      4.8 km/h    1023.4 hpa     23.5º    0.0 mm
   28-10-2020    09:50      14.0º(+1.9)     74%      022 (N)      6.4 km/h    1023.2 hpa     23.5º    0.0 mm
   28-10-2020    09:45      14.2º(+2.4)     74%      022 (N)      4.8 km/h    1023.1 hpa     23.5º    0.0 mm
   28-10-2020    09:40      14.2º(+2.3)     74%      045(NE)      3.2 km/h    1023.0 hpa     23.5º    0.0 mm
   28-10-2020    09:35      14.2º(+2.3)     74%      090 (E)      4.8 km/h    1023.0 hpa     23.6º    0.0 mm
   28-10-2020    09:30      14.1º(+2.2)     75%      067(NE)      3.2 km/h    1023.0 hpa     23.5º    0.0 mm
   28-10-2020    09:25      13.8º(+1.8)     75%      045(NE)      4.8 km/h    1022.9 hpa     23.5º    0.0 mm
   28-10-2020    09:20      13.7º(+1.8)     75%      045(NE)      4.8 km/h    1022.9 hpa     23.6º    0.0 mm
   28-10-2020    09:15      13.6º(+1.8)     76%      022 (N)      4.8 km/h    1022.9 hpa     23.6º    0.0 mm
   28-10-2020    09:10      13.4º(+1.8)     76%      045(NE)      4.8 km/h    1022.8 hpa     23.6º    0.0 mm
   28-10-2020    09:05      13.3º(+1.9)     76%      045(NE)      4.8 km/h    1022.8 hpa     23.6º    0.0 mm
   28-10-2020    09:00      13.3º(+1.9)     77%      045(NE)      4.8 km/h    1022.8 hpa     23.6º    0.0 mm
   28-10-2020    08:55      13.2º(+1.9)     78%      045(NE)      4.8 km/h    1022.8 hpa     23.5º    0.0 mm
   28-10-2020    08:50      13.1º(+1.8)     78%      022 (N)      4.8 km/h    1022.6 hpa     23.5º    0.0 mm
   28-10-2020    08:45      12.9º(+1.7)     78%      045(NE)      4.8 km/h    1022.7 hpa     23.5º    0.0 mm
   28-10-2020    08:40      12.8º(+1.7)     79%      045(NE)      4.8 km/h    1022.5 hpa     23.4º    0.0 mm
   28-10-2020    08:35      12.8º(+1.9)     79%      067(NE)      4.8 km/h    1022.4 hpa     23.4º    0.0 mm
   28-10-2020    08:30      12.7º(+1.8)     80%      045(NE)      4.8 km/h    1022.3 hpa     23.3º    0.0 mm
   28-10-2020    08:25      12.6º(+1.8)     80%      045(NE)      4.8 km/h    1022.3 hpa     23.3º    0.0 mm
   28-10-2020    08:20      12.4º(+1.7)     81%      045(NE)      4.8 km/h    1022.1 hpa     23.3º    0.0 mm
   28-10-2020    08:15      12.3º(+1.6)     81%      045(NE)      4.8 km/h    1022.2 hpa     23.3º    0.0 mm
   28-10-2020    08:10      12.2º(+1.6)     81%      022 (N)      3.2 km/h    1022.0 hpa     23.3º    0.0 mm
   28-10-2020    08:05      12.2º(+1.7)     81%      045(NE)      3.2 km/h    1022.0 hpa     23.3º    0.0 mm
   28-10-2020    08:00      12.2º(+1.8)     81%      067(NE)      3.2 km/h    1022.0 hpa     23.3º    0.0 mm
   28-10-2020    07:55        - º(----)      -%         -          -  km/h    1022.0 hpa     23.3º    0.0 mm
   28-10-2020    07:50        - º(----)      -%         -          -  km/h    1021.9 hpa     23.2º    0.0 mm
   28-10-2020    07:45        - º(----)      -%         -          -  km/h    1021.9 hpa     23.3º    0.0 mm
   28-10-2020    07:40        - º(----)      -%         -          -  km/h    1021.8 hpa     23.2º    0.0 mm
   28-10-2020    07:35        - º(----)      -%         -          -  km/h    1021.8 hpa     23.2º    0.0 mm
   28-10-2020    07:30        - º(----)      -%         -          -  km/h    1021.8 hpa     23.2º    0.0 mm
   28-10-2020    07:25        - º(----)      -%         -          -  km/h    1021.8 hpa     23.1º    0.0 mm
   28-10-2020    07:20        - º(----)      -%         -          -  km/h    1021.7 hpa     23.1º    0.0 mm
   28-10-2020    07:15        - º(----)      -%         -          -  km/h    1021.8 hpa     23.1º    0.0 mm
   28-10-2020    07:10        - º(----)      -%         -          -  km/h    1021.7 hpa     23.1º    0.0 mm
   28-10-2020    07:05        - º(----)      -%         -          -  km/h    1021.6 hpa     22.9º    0.0 mm
   28-10-2020    07:00        - º(----)      -%         -          -  km/h    1021.7 hpa     22.8º    0.0 mm
   28-10-2020    06:55        - º(----)      -%         -          -  km/h    1021.7 hpa     22.8º    0.0 mm
   28-10-2020    06:50        - º(----)      -%         -          -  km/h    1021.7 hpa     22.8º    0.0 mm
   28-10-2020    06:45        - º(----)      -%         -          -  km/h    1021.7 hpa     22.7º    0.0 mm
   28-10-2020    06:40        - º(----)      -%         -          -  km/h    1021.6 hpa     22.6º    0.0 mm
   28-10-2020    06:35        - º(----)      -%         -          -  km/h    1021.7 hpa     22.4º    0.0 mm
   28-10-2020    06:30        - º(----)      -%         -          -  km/h    1021.5 hpa     22.4º    0.0 mm
   28-10-2020    06:25        - º(----)      -%         -          -  km/h    1021.5 hpa     22.4º    0.0 mm
   28-10-2020    06:20        - º(----)      -%         -          -  km/h    1021.5 hpa     22.7º    0.0 mm
   28-10-2020    06:15      12.4º(+1.6)     81%         -          -  km/h    1021.5 hpa     22.8º    0.0 mm
   28-10-2020    06:10      12.4º(+1.6)     81%      045(NE)      1.6 km/h    1021.5 hpa     22.4º    0.0 mm
   28-10-2020    06:05      12.6º(+1.7)     81%      045(NE)      3.2 km/h    1021.5 hpa     22.4º    0.0 mm
   28-10-2020    06:00      12.5º(+1.6)     81%      045(NE)      3.2 km/h    1021.5 hpa     22.4º    0.0 mm
   28-10-2020    05:55      12.5º(+1.6)     81%      045(NE)      3.2 km/h    1021.5 hpa     22.4º    0.0 mm
   28-10-2020    05:50      12.5º(+1.6)     81%      045(NE)      3.2 km/h    1021.4 hpa     22.4º    0.0 mm
   28-10-2020    05:45      12.5º(+1.6)     81%      022 (N)      3.2 km/h    1021.4 hpa     22.4º    0.0 mm
   28-10-2020    05:40      12.5º(+1.6)     80%      045(NE)      3.2 km/h    1021.3 hpa     22.4º    0.0 mm
   28-10-2020    05:35      12.6º(+1.7)     80%      045(NE)      1.6 km/h    1021.2 hpa     22.4º    0.0 mm
   28-10-2020    05:30      12.6º(+1.5)     80%      045(NE)      1.6 km/h    1021.3 hpa     22.4º    0.0 mm
   28-10-2020    05:25      12.6º(+1.4)     79%      045(NE)      1.6 km/h    1021.1 hpa     22.4º    0.0 mm
   28-10-2020    05:20      12.7º(+1.4)     79%      045(NE)      3.2 km/h    1021.3 hpa     22.4º    0.0 mm
   28-10-2020    05:15      12.7º(+1.4)     78%      045(NE)      3.2 km/h    1021.1 hpa     22.4º    0.0 mm
   28-10-2020    05:10      12.8º(+1.4)     78%      045(NE)      4.8 km/h    1021.1 hpa     22.4º    0.0 mm
   28-10-2020    05:05      12.9º(+1.4)     77%      045(NE)      3.2 km/h    1021.3 hpa     22.4º    0.0 mm
   28-10-2020    05:00      13.0º(+1.4)     77%      045(NE)      3.2 km/h    1021.3 hpa     22.6º    0.0 mm
   28-10-2020    04:55      13.1º(+1.5)     77%      045(NE)      1.6 km/h    1021.3 hpa     22.6º    0.0 mm
   28-10-2020    04:50      13.2º(+1.7)     76%      045(NE)      1.6 km/h    1021.2 hpa     22.6º    0.0 mm
   28-10-2020    04:45      13.3º(+1.9)     76%      045(NE)      3.2 km/h    1021.3 hpa     22.6º    0.0 mm
   28-10-2020    04:40      13.4º(+2.0)     75%      045(NE)      3.2 km/h    1021.3 hpa     22.6º    0.0 mm
   28-10-2020    04:35      13.6º(+2.2)     75%      045(NE)      1.6 km/h    1021.3 hpa     22.6º    0.0 mm
   28-10-2020    04:30      13.7º(+2.1)     75%      022 (N)      1.6 km/h    1021.1 hpa     22.6º    0.0 mm
   28-10-2020    04:25      13.7º(+2.1)     74%      022 (N)      1.6 km/h    1021.0 hpa     22.6º    0.0 mm
   28-10-2020    04:20      13.8º(+2.1)     74%      045(NE)      3.2 km/h    1021.0 hpa     22.7º    0.0 mm
   28-10-2020    04:15      13.8º(+2.1)     74%      022 (N)      3.2 km/h    1021.1 hpa     22.7º    0.0 mm
   28-10-2020    04:10      13.8º(+2.0)     74%      045(NE)      3.2 km/h    1021.1 hpa     22.7º    0.0 mm
   28-10-2020    04:05      13.8º(+1.9)     75%      045(NE)      3.2 km/h    1021.1 hpa     22.7º    0.0 mm
   28-10-2020    04:00      13.7º(+1.8)     75%      022 (N)      3.2 km/h    1021.1 hpa     22.7º    0.0 mm
   28-10-2020    03:55      13.7º(+1.7)     75%      022 (N)      3.2 km/h    1021.1 hpa     22.7º    0.0 mm
   28-10-2020    03:50      13.7º(+1.6)     75%      022 (N)      1.6 km/h    1021.1 hpa     22.7º    0.0 mm
   28-10-2020    03:45      13.7º(+1.5)     74%      022 (N)      3.2 km/h    1021.2 hpa     22.8º    0.0 mm
   28-10-2020    03:40      13.7º(+1.5)     74%      022 (N)      3.2 km/h    1021.1 hpa     22.8º    0.0 mm
   28-10-2020    03:35      13.8º(+1.5)     74%      022 (N)      3.2 km/h    1021.1 hpa     22.8º    0.0 mm
   28-10-2020    03:30      13.8º(+1.4)     74%      022 (N)      3.2 km/h    1021.2 hpa     22.8º    0.0 mm
   28-10-2020    03:25      13.8º(+1.2)     74%      022 (N)      1.6 km/h    1021.3 hpa     22.8º    0.0 mm
   28-10-2020    03:20      13.9º(+1.3)     73%      022 (N)      3.2 km/h    1021.2 hpa     22.8º    0.0 mm
   28-10-2020    03:15      13.9º(+1.2)     73%      022 (N)      3.2 km/h    1021.3 hpa     22.8º    0.0 mm
   28-10-2020    03:10      14.0º(+1.2)     72%      022 (N)      3.2 km/h    1021.3 hpa     22.8º    0.0 mm
   28-10-2020    03:05      14.1º(+1.3)     72%      022 (N)      3.2 km/h    1021.3 hpa     22.8º    0.0 mm
   28-10-2020    03:00      14.1º(+1.2)     72%      022 (N)      1.6 km/h    1021.3 hpa     22.8º    0.0 mm
   28-10-2020    02:55      14.1º(+1.2)     72%      022 (N)      1.6 km/h    1021.3 hpa     22.8º    0.0 mm
   28-10-2020    02:50      14.2º(+1.2)     71%      022 (N)      1.6 km/h    1021.3 hpa     22.8º    0.0 mm
   28-10-2020    02:45      14.2º(+1.1)     71%         -         0.0 km/h    1021.4 hpa     22.8º    0.0 mm
   28-10-2020    02:40      14.3º(+1.1)     71%         -         0.0 km/h    1021.4 hpa     22.9º    0.0 mm
   28-10-2020    02:35      14.3º(+1.1)     70%         -         0.0 km/h    1021.4 hpa     22.9º    0.0 mm
   28-10-2020    02:30      14.3º(+1.0)     70%      022 (N)      1.6 km/h    1021.5 hpa     22.9º    0.0 mm
   28-10-2020    02:25      14.3º(+0.9)     70%      022 (N)      3.2 km/h    1021.4 hpa     22.9º    0.0 mm
   28-10-2020    02:20      14.3º(+0.9)     70%      022 (N)      3.2 km/h    1021.4 hpa     22.9º    0.0 mm
   28-10-2020    02:15      14.3º(+0.8)     69%      022 (N)      1.6 km/h    1021.5 hpa     22.9º    0.0 mm
   28-10-2020    02:10      14.3º(+0.7)     69%      022 (N)      1.6 km/h    1021.5 hpa     23.1º    0.0 mm
   28-10-2020    02:05      14.3º(+0.7)     69%      022 (N)      3.2 km/h    1021.5 hpa     23.1º    0.0 mm
   28-10-2020    02:00      14.4º(+0.7)     69%      022 (N)      1.6 km/h    1021.6 hpa     23.1º    0.0 mm
   28-10-2020    01:55      14.4º(+0.7)     68%      022 (N)      1.6 km/h    1021.5 hpa     23.1º    0.0 mm
   28-10-2020    01:50      14.4º(+0.8)     68%      022 (N)      1.6 km/h    1021.5 hpa     23.1º    0.0 mm
   28-10-2020    01:45      14.4º(+0.8)     68%      022 (N)      1.6 km/h    1021.6 hpa     23.1º    0.0 mm
   28-10-2020    01:40      14.5º(+0.9)     68%      022 (N)      3.2 km/h    1021.6 hpa     23.1º    0.0 mm
   28-10-2020    01:35      14.6º(+1.1)     67%      022 (N)      1.6 km/h    1021.6 hpa     23.1º    0.0 mm
   28-10-2020    01:30      14.6º(+1.0)     67%      045(NE)      3.2 km/h    1021.6 hpa     23.2º    0.0 mm
   28-10-2020    01:25      14.7º(+1.1)     66%      045(NE)      1.6 km/h    1021.6 hpa     23.2º    0.0 mm
   28-10-2020    01:20      14.7º(+1.0)     66%      045(NE)      1.6 km/h    1021.7 hpa     23.2º    0.0 mm
   28-10-2020    01:15      14.7º(+0.9)     66%      045(NE)      1.6 km/h    1021.7 hpa     23.2º    0.0 mm
   28-10-2020    01:10      14.8º(+1.0)     65%      045(NE)      1.6 km/h    1021.7 hpa     23.3º    0.0 mm
   28-10-2020    01:05      14.8º(+1.0)     64%      045(NE)      3.2 km/h    1021.8 hpa     23.3º    0.0 mm
   28-10-2020    01:00      14.9º(+1.0)     64%      045(NE)      3.2 km/h    1021.8 hpa     23.3º    0.0 mm
   28-10-2020    00:55      14.9º(----)     64%      045(NE)      3.2 km/h    1021.7 hpa     23.4º    0.0 mm
   28-10-2020    00:50      14.9º(----)     64%      000 (N)      3.2 km/h    1021.7 hpa     23.4º    0.0 mm
   28-10-2020    00:45      14.9º(----)     64%      022 (N)      3.2 km/h    1021.7 hpa     23.4º    0.0 mm
   28-10-2020    00:40      14.9º(----)     63%      022 (N)      3.2 km/h    1021.7 hpa     23.4º    0.0 mm
   28-10-2020    00:35      15.0º(----)     63%      000 (N)      3.2 km/h    1021.6 hpa     23.4º    0.0 mm
   28-10-2020    00:30      15.0º(----)     63%      000 (N)      4.8 km/h    1021.7 hpa     23.4º    0.0 mm
   28-10-2020    00:25      15.1º(----)     62%      022 (N)      3.2 km/h    1021.7 hpa     23.4º    0.0 mm
   28-10-2020    00:20      15.1º(----)     62%      022 (N)      3.2 km/h    1021.7 hpa     23.4º    0.0 mm
   28-10-2020    00:15      15.1º(----)     62%      022 (N)      3.2 km/h    1021.6 hpa     23.4º    0.0 mm
   28-10-2020    00:10      15.2º(----)     61%      022 (N)      3.2 km/h    1021.7 hpa     23.5º    0.0 mm
   28-10-2020    00:05      15.3º(----)     61%      022 (N)      3.2 km/h    1021.7 hpa     23.5º    0.0 mm
   28-10-2020    00:00      15.3º(----)     60%      022 (N)      3.2 km/h    1021.6 hpa     23.5º    0.0 mm